Time;durP1;ratioP1;P1;durP2;ratioP2;P2;SDS_P1;SDS_P2;PMS_P1;PMS_P2;Temp;Humidity;BMP_temperature;BMP_pressure;BME280_temperature;BME280_humidity;BME280_pressure;Samples;Min_cycle;Max_cycle;Signal;HPM_P1;HPM_P2
2021/09/19 00:00:42;;;;;;;;;;;;;;;;;;;;;
2021/09/19 00:03:48;;;;;;;4.00;2.60;;;;;;;25.04;46.03;100447.89;111454;1230;61154;-85
2021/09/19 00:06:37;;;;;;;3.60;2.30;;;;;;;25.04;45.93;100444.36;111693;1229;74245;-87
2021/09/19 00:09:34;;;;;;;3.50;2.30;;;;;;;25.04;46.02;100444.52;111715;1229;74761;-86
2021/09/19 00:12:32;;;;;;;3.70;2.50;;;;;;;25.04;45.98;100445.42;111757;1228;61032;-86
2021/09/19 00:15:50;;;;;;;3.50;2.40;;;;;;;25.04;45.98;100447.05;111751;1229;60938;-85
2021/09/19 00:18:32;;;;;;;;;;;;;;;25.04;45.82;100452.08;111395;1232;73458;-80
2021/09/19 00:22:00;;;;;;;3.10;2.20;;;;;;;25.02;45.96;100444.89;111696;1230;73329;-87
2021/09/19 00:25:07;;;;;;;;;;;;;;;;;;;;;
2021/09/19 00:27:57;;;;;;;3.80;2.50;;;;;;;25.02;45.89;100450.44;111542;1230;60990;-84
2021/09/19 00:30:48;;;;;;;3.30;2.40;;;;;;;25.02;45.95;100451.34;111534;1229;64551;-85
2021/09/19 00:33:36;;;;;;;3.20;2.30;;;;;;;25.03;45.89;100458.30;111146;1233;74410;-84
2021/09/19 00:36:43;;;;;;;4.00;2.60;;;;;;;25.02;45.96;100459.65;111393;1231;61020;-83
2021/09/19 00:39:56;;;;;;;3.40;2.30;;;;;;;25.02;45.88;100462.02;111150;1233;61474;-85
2021/09/19 00:42:53;;;;;;;3.90;2.50;;;;;;;25.02;45.94;100470.25;111255;1231;63658;-84
2021/09/19 00:45:49;;;;;;;;;;;;;;;;;;;;;
2021/09/19 00:49:05;;;;;;;3.90;2.60;;;;;;;25.02;45.99;100470.65;111084;1234;61056;-82
2021/09/19 00:51:52;;;;;;;3.10;2.20;;;;;;;25.02;45.99;100471.33;110988;1235;61046;-84
2021/09/19 00:55:18;;;;;;;3.60;2.30;;;;;;;25.02;45.85;100474.23;111122;1230;64296;-83
2021/09/19 00:58:32;;;;;;;4.00;2.40;;;;;;;25.02;45.91;100471.56;111742;1229;66759;-83
2021/09/19 01:01:39;;;;;;;4.60;2.80;;;;;;;25.02;45.90;100469.91;111452;1229;60962;-81
2021/09/19 01:04:54;;;;;;;3.20;2.50;;;;;;;25.02;45.70;100472.07;111773;1229;61645;-80
2021/09/19 01:07:41;;;;;;;3.70;2.50;;;;;;;25.03;45.83;100474.71;111742;1229;72530;-83
2021/09/19 01:10:42;;;;;;;;;;;;;;;;;;;;;
2021/09/19 01:17:06;;;;;;;3.90;2.40;;;;;;;25.02;45.74;100482.15;111723;1228;61175;-88
2021/09/19 01:19:54;;;;;;;3.40;2.30;;;;;;;25.02;45.59;100485.94;111249;1231;73920;-85
2021/09/19 01:22:51;;;;;;;;;;;;;;;;;;;;;
2021/09/19 01:25:50;;;;;;;3.60;2.40;;;;;;;25.00;45.68;100486.32;111533;1228;61052;-85
2021/09/19 01:29:06;;;;;;;3.20;2.30;;;;;;;25.00;45.57;100489.74;111750;1227;61396;-87
2021/09/19 01:32:05;;;;;;;3.80;2.50;;;;;;;25.01;45.50;100488.74;111803;1227;71765;-90
2021/09/19 01:35:15;;;;;;;3.30;2.30;;;;;;;25.00;45.37;100487.02;112073;1224;67019;-83
2021/09/19 01:38:10;;;;;;;4.20;2.70;;;;;;;25.00;45.47;100484.02;112141;1225;61443;-87
2021/09/19 01:41:09;;;;;;;4.90;2.40;;;;;;;25.00;45.39;100484.69;112018;1226;61149;-88
2021/09/19 01:44:20;;;;;;;3.50;2.40;;;;;;;25.00;45.49;100477.33;111858;1227;71370;-86
2021/09/19 01:47:51;;;;;;;;;;;;;;;;;;;;;
2021/09/19 01:50:51;;;;;;;;;;;;;;;;;;;;;
2021/09/19 01:53:48;;;;;;;3.40;2.30;;;;;;;24.99;45.31;100477.19;111300;1232;61008;-86
2021/09/19 01:56:57;;;;;;;3.70;2.50;;;;;;;24.99;45.36;100480.80;111160;1233;64889;-84
2021/09/19 02:00:01;;;;;;;4.00;2.50;;;;;;;24.99;45.19;100490.69;110997;1235;65852;-82
2021/09/19 02:03:07;;;;;;;4.50;2.50;;;;;;;25.00;45.18;100496.06;111009;1235;61281;-85
2021/09/19 02:05:56;;;;;;;;;;;;;;;;;;;;;
2021/09/19 02:09:23;;;;;;;3.70;2.40;;;;;;;24.99;45.12;100500.83;111076;1234;62883;-87
2021/09/19 02:12:19;;;;;;;3.10;2.20;;;;;;;24.99;44.94;100496.52;110858;1235;67079;-85
2021/09/19 02:15:36;;;;;;;3.60;2.60;;;;;;;24.99;45.08;100493.25;111219;1232;61476;-82
2021/09/19 02:18:29;;;;;;;3.40;2.40;;;;;;;24.98;44.98;100492.41;111136;1233;60942;-87
2021/09/19 02:21:38;;;;;;;4.10;2.20;;;;;;;24.99;44.96;100493.77;111012;1235;73741;-86
2021/09/19 02:24:48;;;;;;;;;;;;;;;;;;;;;
2021/09/19 02:28:04;;;;;;;3.60;2.60;;;;;;;24.97;44.81;100492.85;111273;1231;61052;-84
2021/09/19 02:31:02;;;;;;;;;;;;;;;;;;;;;
2021/09/19 02:34:12;;;;;;;3.00;2.40;;;;;;;24.97;44.73;100495.74;111195;1230;72120;-86
2021/09/19 02:37:30;;;;;;;3.50;2.10;;;;;;;24.97;44.72;100498.64;111374;1230;65943;-87
2021/09/19 02:40:26;;;;;;;;;;;;;;;;;;;;;
2021/09/19 02:43:33;;;;;;;4.80;2.50;;;;;;;24.97;44.65;100503.67;111657;1228;60980;-88
2021/09/19 02:46:39;;;;;;;3.40;2.30;;;;;;;24.97;44.56;100503.40;111549;1230;63896;-82
2021/09/19 02:49:37;;;;;;;3.50;2.40;;;;;;;24.97;44.68;100504.65;111533;1230;66862;-84
2021/09/19 02:52:54;;;;;;;3.60;2.30;;;;;;;24.96;44.47;100505.05;111309;1232;61185;-87
2021/09/19 02:56:04;;;;;;;4.10;2.40;;;;;;;24.96;44.45;100501.61;111285;1232;61985;-88
2021/09/19 02:58:59;;;;;;;3.50;2.70;;;;;;;24.96;44.29;100499.11;111583;1229;71879;-85
2021/09/19 03:02:06;;;;;;;3.20;2.30;;;;;;;24.95;44.38;100495.75;111719;1229;73322;-81
2021/09/19 03:05:34;;;;;;;3.80;2.50;;;;;;;24.96;44.48;100498.21;111148;1233;61238;-84
2021/09/19 03:08:49;;;;;;;;;;;;;;;;;;;;;
2021/09/19 03:11:55;;;;;;;2.90;1.80;;;;;;;24.95;44.19;100496.52;111281;1232;72547;-90
2021/09/19 03:15:09;;;;;;;4.00;2.30;;;;;;;24.94;44.17;100499.41;110747;1236;73241;-81
2021/09/19 03:18:24;;;;;;;;;;;;;;;;;;;;;
2021/09/19 03:21:21;;;;;;;;;;;;;;;;;;;;;
2021/09/19 03:24:41;;;;;;;4.70;2.40;;;;;;;24.94;43.86;100495.46;110520;1239;73366;-83
2021/09/19 03:27:33;;;;;;;4.00;2.30;;;;;;;24.94;44.04;100493.55;110323;1240;74927;-83
2021/09/19 03:30:44;;;;;;;3.80;2.40;;;;;;;24.94;43.99;100496.97;110490;1240;61400;-85
2021/09/19 03:33:35;;;;;;;3.00;2.20;;;;;;;24.94;43.87;100497.69;110629;1237;60933;-85
2021/09/19 03:36:40;;;;;;;3.00;2.20;;;;;;;24.93;43.78;100501.35;110776;1235;63680;-84
2021/09/19 03:39:57;;;;;;;;;;;;;;;;;;;;;
2021/09/19 03:42:54;;;;;;;3.30;2.50;;;;;;;24.92;43.70;100497.63;110959;1232;61218;-84
2021/09/19 03:46:28;;;;;;;3.00;2.10;;;;;;;24.92;43.71;100496.73;111289;1232;62926;-85
2021/09/19 03:49:14;;;;;;;3.40;2.40;;;;;;;24.92;43.58;100496.01;111310;1232;73908;-79
2021/09/19 03:52:10;;;;;;;;;;;;;;;;;;;;;
2021/09/19 03:55:20;;;;;;;;;;;;;;;;;;;;;
2021/09/19 03:58:19;;;;;;;3.10;2.20;;;;;;;24.92;43.46;100496.23;111908;1225;61688;-87
2021/09/19 04:01:36;;;;;;;;;;;;;;;;;;;;;
2021/09/19 04:04:42;;;;;;;3.80;2.50;;;;;;;24.90;43.40;100501.44;112081;1224;65840;-84
2021/09/19 04:07:52;;;;;;;3.30;2.30;;;;;;;24.90;43.50;100503.80;112292;1225;61484;-83
2021/09/19 04:11:09;;;;;;;3.30;2.30;;;;;;;24.90;43.48;100499.67;112087;1227;61141;-81
2021/09/19 04:14:19;;;;;;;2.90;2.10;;;;;;;24.90;43.31;100501.05;112060;1226;73450;-82
2021/09/19 04:17:03;;;;;;;3.20;2.20;;;;;;;24.90;43.39;100498.74;111865;1228;75063;-82
2021/09/19 04:20:11;;;;;;;3.90;2.40;;;;;;;24.90;43.25;100497.45;112174;1224;60978;-82
2021/09/19 04:22:57;;;;;;;3.60;2.10;;;;;;;24.90;43.23;100494.61;112490;1224;62202;-82
2021/09/19 04:25:55;;;;;;;4.40;2.30;;;;;;;24.90;43.07;100498.73;112509;1224;63111;-79
2021/09/19 04:28:44;;;;;;;3.50;2.20;;;;;;;24.89;43.18;100503.30;112196;1224;65830;-80
2021/09/19 04:32:36;;;;;;;4.50;2.20;;;;;;;24.90;43.10;100503.99;112228;1222;60965;-84
2021/09/19 04:35:19;;;;;;;3.50;2.20;;;;;;;24.90;43.15;100508.45;112130;1225;61523;-87
2021/09/19 04:38:15;;;;;;;2.90;2.10;;;;;;;24.90;43.04;100508.05;112235;1225;73681;-81
2021/09/19 04:41:41;;;;;;;;;;;;;;;;;;;;;
2021/09/19 04:44:26;;;;;;;3.90;2.30;;;;;;;24.90;42.83;100513.29;112134;1226;61032;-85
2021/09/19 04:47:26;;;;;;;;;;;;;;;;;;;;;
2021/09/19 04:50:23;;;;;;;3.10;2.30;;;;;;;24.91;42.80;100520.95;112168;1225;73613;-88
2021/09/19 04:53:50;;;;;;;3.20;2.10;;;;;;;24.91;42.79;100523.85;112071;1225;73288;-87
2021/09/19 04:56:55;;;;;;;2.70;1.90;;;;;;;24.91;42.79;100530.67;111871;1228;61021;-78
2021/09/19 04:59:52;;;;;;;3.70;2.20;;;;;;;24.91;42.64;100530.30;111491;1232;61158;-86
2021/09/19 05:02:52;;;;;;;;;;;;;;;;;;;;;
2021/09/19 05:05:58;;;;;;;3.40;2.40;;;;;;;24.91;42.67;100533.17;111499;1230;74942;-86
2021/09/19 05:09:05;;;;;;;3.40;2.20;;;;;;;24.91;42.75;100530.51;111744;1229;61009;-86
2021/09/19 05:12:05;;;;;;;;;;;;;;;;;;;;;
2021/09/19 05:14:55;;;;;;;3.40;2.40;;;;;;;24.91;42.71;100531.75;111514;1231;73622;-85
2021/09/19 05:17:51;;;;;;;;;;;;;;;;;;;;;
2021/09/19 05:20:51;;;;;;;3.30;2.10;;;;;;;24.92;42.59;100530.27;111573;1229;60947;-83
2021/09/19 05:23:49;;;;;;;3.90;2.40;;;;;;;24.91;42.56;100526.70;111572;1229;61544;-85
2021/09/19 05:27:05;;;;;;;3.50;2.20;;;;;;;24.91;42.54;100527.41;111867;1227;72418;-89
2021/09/19 05:29:51;;;;;;;4.00;2.20;;;;;;;24.91;42.25;100528.48;111710;1229;75358;-82
2021/09/19 05:32:56;;;;;;;2.90;2.00;;;;;;;24.91;42.32;100526.34;111762;1229;60962;-86
2021/09/19 05:36:04;;;;;;;3.20;2.00;;;;;;;24.91;42.37;100531.59;111668;1227;62286;-85
2021/09/19 05:38:58;;;;;;;5.20;2.20;;;;;;;24.91;42.41;100535.74;112284;1225;64831;-87
2021/09/19 05:42:07;;;;;;;4.30;2.40;;;;;;;24.92;42.35;100540.35;111868;1227;75264;-85
2021/09/19 05:45:02;;;;;;;3.80;2.30;;;;;;;24.91;42.39;100535.67;111809;1228;61075;-86
2021/09/19 05:47:57;;;;;;;3.20;2.30;;;;;;;24.91;42.31;100531.56;111887;1227;59762;-85
2021/09/19 05:50:53;;;;;;;3.20;2.30;;;;;;;24.91;42.30;100526.30;111588;1229;73607;-87
2021/09/19 05:53:52;;;;;;;4.30;2.20;;;;;;;24.92;42.41;100530.96;111527;1230;65737;-86
2021/09/19 05:56:40;;;;;;;2.70;2.00;;;;;;;24.93;42.38;100528.89;111606;1229;60953;-84
2021/09/19 05:59:37;;;;;;;3.70;2.10;;;;;;;24.93;42.39;100531.73;111896;1227;61226;-89
2021/09/19 06:03:00;;;;;;;2.90;1.90;;;;;;;24.93;42.34;100529.05;111976;1225;73356;-83
2021/09/19 06:05:46;;;;;;;3.30;2.30;;;;;;;24.94;42.52;100524.86;111953;1225;74827;-83
2021/09/19 06:08:58;;;;;;;3.00;2.10;;;;;;;24.94;42.51;100520.52;111933;1226;61012;-85
2021/09/19 06:12:18;;;;;;;;;;;;;;;;;;;;;
2021/09/19 06:15:45;;;;;;;3.60;2.10;;;;;;;24.95;42.68;100519.68;112128;1225;73451;-79
2021/09/19 06:18:42;;;;;;;;;;;;;;;;;;;;;
2021/09/19 06:22:00;;;;;;;;;;;;;;;;;;;;;
2021/09/19 06:24:57;;;;;;;;;;;;;;;;;;;;;
2021/09/19 06:28:10;;;;;;;;;;;;;;;;;;;;;
2021/09/19 06:31:22;;;;;;;3.80;2.30;;;;;;;24.99;42.93;100522.75;111548;1230;67012;-85
2021/09/19 06:34:03;;;;;;;5.80;2.50;;;;;;;25.01;43.00;100518.27;111533;1230;60983;-85
2021/09/19 06:37:09;;;;;;;3.80;2.20;;;;;;;25.02;43.11;100522.15;111554;1230;61102;-79
2021/09/19 06:40:24;;;;;;;3.30;2.30;;;;;;;25.03;43.05;100528.35;111477;1229;72333;-83
2021/09/19 06:43:47;;;;;;;3.20;2.20;;;;;;;25.04;43.01;100533.07;111308;1232;74561;-85
2021/09/19 06:46:56;;;;;;;3.00;2.30;;;;;;;25.06;43.21;100536.17;111153;1233;61034;-85
2021/09/19 06:49:58;;;;;;;3.20;1.90;;;;;;;25.06;43.14;100533.59;110818;1236;60222;-83
2021/09/19 06:52:54;;;;;;;;;;;;;;;;;;;;;
2021/09/19 06:56:00;;;;;;;3.30;2.30;;;;;;;25.09;43.11;100533.67;110794;1235;74407;-84
2021/09/19 06:58:52;;;;;;;3.50;2.10;;;;;;;25.10;43.09;100528.44;111030;1229;61093;-86
2021/09/19 07:01:43;;;;;;;3.40;2.00;;;;;;;25.10;43.09;100529.09;111224;1231;61077;-83
2021/09/19 07:04:40;;;;;;;3.20;2.00;;;;;;;25.12;43.16;100530.22;111215;1232;64826;-91
2021/09/19 07:08:01;;;;;;;2.80;2.00;;;;;;;25.13;43.23;100528.71;111225;1229;73876;-85
2021/09/19 07:10:57;;;;;;;;;;;;;;;;;;;;;
2021/09/19 07:14:31;;;;;;;3.30;2.00;;;;;;;25.14;43.34;100529.82;110969;1234;61046;-86
2021/09/19 07:17:16;;;;;;;;;;;;;;;;;;;;;
2021/09/19 07:20:31;;;;;;;3.90;2.40;;;;;;;25.15;43.29;100528.85;111098;1234;66478;-86
2021/09/19 07:23:21;;;;;;;4.00;2.10;;;;;;;25.16;43.39;100526.23;111197;1232;61002;-80
2021/09/19 07:26:22;;;;;;;;;;;;;;;;;;;;;
2021/09/19 07:29:40;;;;;;;3.50;2.20;;;;;;;25.17;43.19;100526.67;111543;1232;64928;-85
2021/09/19 07:32:49;;;;;;;3.60;2.40;;;;;;;25.18;43.37;100527.66;111124;1232;74539;-84
2021/09/19 07:35:57;;;;;;;3.30;2.20;;;;;;;25.18;43.35;100523.67;111169;1232;60975;-80
2021/09/19 07:38:46;;;;;;;5.30;2.20;;;;;;;25.18;43.28;100522.05;111057;1233;61287;-84
2021/09/19 07:41:54;;;;;;;3.60;2.20;;;;;;;25.18;43.39;100519.90;111068;1233;73362;-86
2021/09/19 07:44:50;;;;;;;4.20;2.10;;;;;;;25.18;43.38;100523.85;110974;1219;65700;-86
2021/09/19 07:48:08;;;;;;;3.20;2.20;;;;;;;25.19;43.20;100522.52;110835;1235;61000;-85
2021/09/19 07:50:54;;;;;;;3.70;2.30;;;;;;;25.19;43.24;100526.84;110926;1235;61045;-80
2021/09/19 07:53:48;;;;;;;3.80;2.20;;;;;;;25.20;43.31;100532.88;111068;1234;63865;-79
2021/09/19 07:57:04;;;;;;;2.90;2.00;;;;;;;25.20;43.26;100532.13;110682;1235;73331;-81
2021/09/19 07:59:58;;;;;;;3.50;2.00;;;;;;;25.21;43.47;100533.88;110907;1235;60949;-82
2021/09/19 08:02:55;;;;;;;4.00;2.40;;;;;;;25.21;43.39;100534.60;110801;1234;60966;-83
2021/09/19 08:06:01;;;;;;;3.90;2.30;;;;;;;25.21;43.34;100541.59;111095;1235;63006;-82
2021/09/19 08:09:10;;;;;;;;;;;;;;;;;;;;;
2021/09/19 08:12:08;;;;;;;3.30;2.20;;;;;;;25.22;43.38;100534.84;111863;1227;61202;-89
2021/09/19 08:14:48;;;;;;;2.80;2.10;;;;;;;25.22;43.35;100529.93;111641;1227;60916;-83
2021/09/19 08:17:34;;;;;;;3.30;2.20;;;;;;;25.23;43.32;100532.60;111833;1227;63853;-83
2021/09/19 08:20:16;;;;;;;4.30;2.10;;;;;;;25.23;43.28;100535.85;111925;1227;67534;-82
2021/09/19 08:23:27;;;;;;;3.30;2.20;;;;;;;25.23;43.26;100538.16;112027;1225;61004;-85
2021/09/19 08:26:23;;;;;;;2.90;2.10;;;;;;;25.23;43.26;100534.04;111820;1227;61242;-82
2021/09/19 08:29:12;;;;;;;3.60;2.20;;;;;;;25.23;43.23;100531.36;111736;1226;64915;-83
2021/09/19 08:32:02;;;;;;;3.50;2.10;;;;;;;25.24;43.16;100531.46;112178;1224;74411;-86
2021/09/19 08:34:58;;;;;;;;;;;;;;;;;;;;;
2021/09/19 08:38:11;;;;;;;;;;;;;;;;;;;;;
2021/09/19 08:41:09;;;;;;;;;;;;;;;;;;;;;
2021/09/19 08:44:30;;;;;;;3.50;2.20;;;;;;;25.22;43.15;100509.60;112400;1224;74305;-83
2021/09/19 08:47:22;;;;;;;3.80;2.20;;;;;;;25.22;43.17;100503.84;112507;1221;60966;-87
2021/09/19 08:50:13;;;;;;;3.80;1.90;;;;;;;25.23;43.36;100509.41;112492;1221;61172;-86
2021/09/19 08:53:39;;;;;;;4.70;2.30;;;;;;;25.22;43.37;100503.52;112539;1221;71293;-83
2021/09/19 08:56:39;;;;;;;;;;;;;;;;;;;;;
2021/09/19 09:00:06;;;;;;;3.70;2.20;;;;;;;25.22;43.15;100495.25;112217;1224;61482;-83
2021/09/19 09:02:55;;;;;;;5.60;2.10;;;;;;;25.22;43.39;100488.79;112410;1222;60901;-87
2021/09/19 09:05:53;;;;;;;;;;;;;;;;;;;;;
2021/09/19 09:08:45;;;;;;;2.90;2.10;;;;;;;25.20;43.30;100478.54;112519;1223;74871;-85
2021/09/19 09:11:49;;;;;;;3.50;2.10;;;;;;;25.20;43.36;100478.81;112526;1224;61043;-86
2021/09/19 09:15:04;;;;;;;;;;;;;;;;;;;;;
2021/09/19 09:18:03;;;;;;;;;;;;;;;;;;;;;
2021/09/19 09:21:06;;;;;;;4.30;2.00;;;;;;;25.21;43.37;100474.12;112857;1221;75560;-87
2021/09/19 09:24:17;;;;;;;3.30;2.30;;;;;;;25.20;43.49;100473.64;112552;1221;60995;-87
2021/09/19 09:27:32;;;;;;;;;;;;;;;;;;;;;
2021/09/19 09:30:42;;;;;;;3.30;2.30;;;;;;;25.20;43.43;100470.77;112902;1219;72537;-85
2021/09/19 09:33:48;;;;;;;3.50;2.00;;;;;;;25.20;43.47;100470.39;112904;1219;74442;-87
2021/09/19 09:37:03;;;;;;;4.40;2.20;;;;;;;25.20;43.41;100471.50;112864;1221;60962;-86
2021/09/19 09:40:18;;;;;;;3.80;2.50;;;;;;;25.20;43.61;100473.61;112447;1224;61011;-86
2021/09/19 09:43:27;;;;;;;2.90;1.90;;;;;;;25.20;43.41;100474.02;111682;1228;65038;-82
2021/09/19 09:47:00;;;;;;;3.20;2.00;;;;;;;25.20;43.61;100468.06;111943;1224;74583;-82
2021/09/19 09:50:06;;;;;;;;;;;;;;;;;;;;;
2021/09/19 09:53:24;;;;;;;;;;;;;;;;;;;;;
2021/09/19 09:56:15;;;;;;;5.90;2.40;;;;;;;25.19;43.55;100459.30;111103;1233;73814;-84
2021/09/19 09:59:04;;;;;;;3.80;1.90;;;;;;;25.20;43.52;100452.02;111147;1232;73703;-84
2021/09/19 10:02:21;;;;;;;;;;;;;;;;;;;;;
2021/09/19 10:05:18;;;;;;;3.00;1.90;;;;;;;25.19;43.59;100437.70;111147;1232;61006;-83
2021/09/19 10:08:06;;;;;;;3.00;2.00;;;;;;;25.20;43.43;100436.22;111057;1234;72633;-86
2021/09/19 10:11:05;;;;;;;3.00;2.00;;;;;;;25.19;43.55;100430.70;111246;1231;75412;-87
2021/09/19 10:13:51;;;;;;;3.00;2.30;;;;;;;25.19;43.48;100433.02;111253;1231;61375;-86
2021/09/19 10:17:03;;;;;;;3.00;2.10;;;;;;;25.19;43.52;100432.52;111371;1227;60983;-86
2021/09/19 10:20:12;;;;;;;3.80;2.20;;;;;;;25.18;43.63;100435.65;111714;1229;72376;-82
2021/09/19 10:23:15;;;;;;;3.40;2.00;;;;;;;25.17;43.55;100424.20;111391;1231;74526;-80
2021/09/19 10:27:05;;;;;;;3.30;1.90;;;;;;;25.18;43.45;100420.71;111435;1232;61131;-88
2021/09/19 10:29:31;;;;;;;3.60;2.00;;;;;;;25.17;43.56;100418.48;111583;1228;61081;-83
2021/09/19 10:32:35;;;;;;;3.20;2.20;;;;;;;25.17;43.51;100423.13;111678;1229;72418;-83
2021/09/19 10:36:05;;;;;;;2.90;1.90;;;;;;;25.16;43.50;100417.26;111480;1232;75966;-85
2021/09/19 10:39:10;;;;;;;2.80;1.70;;;;;;;25.16;43.32;100415.27;111140;1234;61130;-85
2021/09/19 10:42:34;;;;;;;3.10;1.90;;;;;;;25.16;43.42;100408.62;111089;1233;61004;-84
2021/09/19 10:45:25;;;;;;;3.40;1.90;;;;;;;25.16;43.43;100412.80;110915;1235;73620;-85
2021/09/19 10:48:42;;;;;;;2.80;2.00;;;;;;;25.16;43.35;100409.59;110775;1236;73182;-84
2021/09/19 10:52:28;;;;;;;;;;;;;;;;;;;;;
2021/09/19 10:55:21;;;;;;;2.80;1.90;;;;;;;25.15;43.42;100401.91;110626;1236;61692;-83
2021/09/19 10:58:13;;;;;;;3.10;2.00;;;;;;;25.15;43.44;100396.91;110664;1237;73745;-86
2021/09/19 11:01:26;;;;;;;3.20;2.00;;;;;;;25.14;43.39;100394.23;110842;1235;65941;-84
2021/09/19 11:04:44;;;;;;;2.40;1.70;;;;;;;25.15;43.48;100392.92;110655;1238;60968;-87
2021/09/19 11:07:38;;;;;;;2.30;1.80;;;;;;;25.14;43.33;100396.02;110640;1239;60988;-82
2021/09/19 11:10:26;;;;;;;2.80;1.80;;;;;;;25.15;43.29;100387.36;110626;1236;72553;-87
2021/09/19 11:13:55;;;;;;;;;;;;;;;;;;;;;
2021/09/19 11:16:54;;;;;;;;;;;;;;;25.14;43.29;100383.83;110911;1235;60977;-83
2021/09/19 11:20:11;;;;;;;;;;;;;;;;;;;;;
2021/09/19 11:23:10;;;;;;;2.80;1.60;;;;;;;25.12;43.31;100378.09;111134;1232;63652;-79
2021/09/19 11:26:01;;;;;;;3.00;2.00;;;;;;;25.12;43.22;100368.73;111095;1232;75484;-79
2021/09/19 11:29:08;;;;;;;3.00;1.80;;;;;;;25.11;43.19;100374.15;111293;1232;61058;-81
2021/09/19 11:31:55;;;;;;;3.10;1.90;;;;;;;25.12;43.14;100362.74;111479;1229;61424;-84
2021/09/19 11:34:50;;;;;;;2.80;1.80;;;;;;;25.13;43.17;100359.84;111704;1228;72464;-81
2021/09/19 11:38:22;;;;;;;2.30;1.80;;;;;;;25.13;43.10;100361.63;111576;1225;66822;-82
2021/09/19 11:40:48;;;;;;;2.40;1.70;;;;;;;25.13;43.25;100356.77;111861;1224;61528;-87
2021/09/19 11:43:38;;;;;;;2.90;1.90;;;;;;;25.13;43.13;100350.63;112152;1224;60938;-85
2021/09/19 11:46:48;;;;;;;2.50;1.70;;;;;;;25.13;42.88;100350.06;111875;1227;72835;-83
2021/09/19 11:49:56;;;;;;;3.20;2.10;;;;;;;25.12;43.01;100347.24;111703;1229;74437;-86
2021/09/19 11:53:06;;;;;;;3.70;1.70;;;;;;;25.13;42.99;100337.14;111251;1232;60975;-84
2021/09/19 11:55:55;;;;;;;3.10;1.70;;;;;;;25.12;43.16;100335.02;110802;1235;61215;-82
2021/09/19 11:59:07;;;;;;;4.00;1.90;;;;;;;25.12;42.91;100328.15;110401;1238;72524;-83
2021/09/19 12:01:52;;;;;;;;;;;;;;;25.13;42.83;100328.68;110538;1238;75626;-83
2021/09/19 12:04:59;;;;;;;2.50;1.80;;;;;;;25.10;43.02;100330.65;110703;1237;61131;-81
2021/09/19 12:08:05;;;;;;;2.30;1.60;;;;;;;25.11;42.86;100315.09;110757;1238;61029;-86
2021/09/19 12:11:08;;;;;;;;;;;;;;;;;;;;;
2021/09/19 12:14:19;;;;;;;3.70;1.90;;;;;;;25.11;42.73;100312.39;110590;1238;74691;-90
2021/09/19 12:17:38;;;;;;;;;;;;;;;;;;;;;
2021/09/19 12:20:35;;;;;;;;;;;;;;;;;;;;;
2021/09/19 12:23:50;;;;;;;;;;;;;;;;;;;;;
2021/09/19 12:26:51;;;;;;;2.70;1.90;;;;;;;25.12;42.61;100312.20;110728;1238;75001;-82
2021/09/19 12:30:23;;;;;;;3.30;1.80;;;;;;;25.12;42.59;100309.47;111097;1234;61074;-84
2021/09/19 12:33:20;;;;;;;2.90;1.80;;;;;;;25.12;42.58;100304.23;111298;1232;61174;-83
2021/09/19 12:36:32;;;;;;;2.90;1.70;;;;;;;25.12;42.45;100304.95;111813;1228;71284;-87
2021/09/19 12:39:46;;;;;;;2.70;1.80;;;;;;;25.12;42.44;100298.09;112057;1227;74445;-85
2021/09/19 12:42:41;;;;;;;2.90;1.70;;;;;;;25.13;42.52;100293.20;111857;1227;61113;-82
2021/09/19 12:45:51;;;;;;;;;;;;;;;;;;;;;
2021/09/19 12:48:53;;;;;;;3.60;1.90;;;;;;;25.12;42.32;100295.56;111150;1231;65015;-82
2021/09/19 12:51:42;;;;;;;3.00;2.10;;;;;;;25.13;42.27;100294.60;111669;1225;76161;-82
2021/09/19 12:54:53;;;;;;;3.00;1.80;;;;;;;25.13;42.26;100287.00;112013;1225;61116;-84
2021/09/19 12:58:13;;;;;;;;;;;;;;;;;;;;;
2021/09/19 13:00:54;;;;;;;3.00;1.80;;;;;;;25.14;42.24;100283.73;111197;1231;72363;-84
2021/09/19 13:03:49;;;;;;;2.80;1.60;;;;;;;25.14;42.07;100283.15;111302;1230;73714;-84
2021/09/19 13:07:05;;;;;;;3.60;1.80;;;;;;;25.14;42.21;100281.30;111266;1232;61573;-83
2021/09/19 13:10:03;;;;;;;2.40;1.70;;;;;;;25.14;42.29;100279.89;111012;1232;60996;-81
2021/09/19 13:12:49;;;;;;;2.40;1.60;;;;;;;25.15;42.20;100279.66;111443;1230;72566;-83
2021/09/19 13:15:48;;;;;;;2.70;2.00;;;;;;;25.15;42.12;100286.45;111291;1229;75964;-84
2021/09/19 13:18:42;;;;;;;3.20;2.00;;;;;;;25.16;42.11;100285.52;111014;1234;61299;-81
2021/09/19 13:21:39;;;;;;;;;;;;;;;;;;;;;
2021/09/19 13:24:38;;;;;;;2.10;1.50;;;;;;;25.16;42.05;100278.67;111003;1230;64335;-82
2021/09/19 13:27:34;;;;;;;;;;;;;;;;;;;;;
2021/09/19 13:30:35;;;;;;;3.50;1.80;;;;;;;25.16;42.13;100267.80;111785;1225;61379;-81
2021/09/19 13:33:42;;;;;;;2.70;1.70;;;;;;;25.17;42.13;100262.73;112098;1225;61003;-82
2021/09/19 13:36:49;;;;;;;3.10;1.90;;;;;;;25.17;41.99;100262.90;112506;1224;71422;-84
2021/09/19 13:40:05;;;;;;;;;;;;;;;;;;;;;
2021/09/19 13:43:06;;;;;;;2.60;1.70;;;;;;;25.17;41.91;100263.47;112534;1222;61012;-85
2021/09/19 13:45:52;;;;;;;2.20;1.70;;;;;;;25.16;42.02;100259.56;112570;1222;61102;-90
2021/09/19 13:48:54;;;;;;;2.10;1.60;;;;;;;25.16;41.86;100264.73;112856;1221;73895;-84
2021/09/19 13:52:00;;;;;;;2.50;1.60;;;;;;;25.16;41.87;100259.25;112549;1222;64735;-89
2021/09/19 13:54:49;;;;;;;;;;;;;;;25.16;41.91;100261.73;112759;1221;61033;-85
2021/09/19 13:57:56;;;;;;;2.60;1.60;;;;;;;25.14;41.82;100259.56;112880;1219;61026;-80
2021/09/19 14:01:10;;;;;;;2.50;1.60;;;;;;;25.15;41.68;100258.76;112862;1221;72264;-84
2021/09/19 14:04:41;;;;;;;1.70;1.40;;;;;;;25.15;41.72;100261.48;112740;1221;74464;-87
2021/09/19 14:07:33;;;;;;;2.60;1.70;;;;;;;25.14;41.60;100265.30;112594;1222;61068;-86
2021/09/19 14:10:42;;;;;;;;;;;;;;;;;;;;;
2021/09/19 14:13:41;;;;;;;;;;;;;;;;;;;;;
2021/09/19 14:16:57;;;;;;;3.00;1.60;;;;;;;25.14;41.51;100259.58;111753;1228;67177;-85
2021/09/19 14:20:13;;;;;;;3.10;1.80;;;;;;;25.15;41.60;100261.86;111579;1228;61052;-86
2021/09/19 14:23:29;;;;;;;2.90;1.60;;;;;;;25.14;41.71;100259.90;111760;1229;61167;-84
2021/09/19 14:26:23;;;;;;;3.00;1.80;;;;;;;25.14;41.56;100256.30;111703;1230;72815;-87
2021/09/19 14:29:18;;;;;;;2.00;1.40;;;;;;;25.14;41.68;100261.02;111721;1230;65571;-84
2021/09/19 14:32:24;;;;;;;2.00;1.70;;;;;;;25.15;41.63;100268.69;111274;1232;60883;-83
2021/09/19 14:35:41;;;;;;;3.20;1.60;;;;;;;25.14;41.60;100265.86;111295;1232;60995;-85
2021/09/19 14:38:44;;;;;;;2.90;1.70;;;;;;;25.14;41.55;100262.30;111278;1232;63299;-84
2021/09/19 14:42:10;;;;;;;3.50;1.60;;;;;;;25.14;41.43;100263.88;111293;1232;75773;-83
2021/09/19 14:45:27;;;;;;;2.60;1.60;;;;;;;25.13;41.43;100268.98;111328;1232;60998;-84
2021/09/19 14:49:00;;;;;;;3.30;1.80;;;;;;;25.14;41.64;100265.70;111280;1233;61794;-84
2021/09/19 14:51:49;;;;;;;2.20;1.60;;;;;;;25.14;41.56;100271.48;111361;1231;73479;-80
2021/09/19 14:54:55;;;;;;;5.10;1.90;;;;;;;25.14;41.41;100283.67;111506;1230;73888;-80
2021/09/19 14:57:42;;;;;;;1.80;1.40;;;;;;;25.14;41.33;100282.11;111730;1229;61010;-83
2021/09/19 15:00:34;;;;;;;3.00;1.70;;;;;;;25.14;41.28;100280.27;111728;1228;61162;-83
2021/09/19 15:03:43;;;;;;;2.50;1.40;;;;;;;25.14;41.34;100277.05;111987;1227;71172;-83
2021/09/19 15:06:38;;;;;;;2.30;1.60;;;;;;;25.14;41.39;100275.29;111743;1227;74500;-84
2021/09/19 15:09:45;;;;;;;2.30;1.60;;;;;;;25.13;41.33;100278.19;111859;1224;61477;-84
2021/09/19 15:12:51;;;;;;;1.80;1.50;;;;;;;25.13;41.15;100280.38;112276;1224;61321;-89
2021/09/19 15:15:46;;;;;;;2.50;1.70;;;;;;;25.13;41.18;100280.41;112041;1226;64458;-83
2021/09/19 15:18:52;;;;;;;2.00;1.60;;;;;;;25.13;41.20;100278.39;111980;1227;74363;-88
2021/09/19 15:21:49;;;;;;;2.30;1.70;;;;;;;25.13;41.21;100281.64;111958;1224;61579;-80
2021/09/19 15:24:58;;;;;;;2.60;1.50;;;;;;;25.13;41.21;100281.45;112341;1222;62262;-87
2021/09/19 15:28:04;;;;;;;;;;;;;;;;;;;;;
2021/09/19 15:31:24;;;;;;;2.10;1.50;;;;;;;25.13;41.08;100283.24;112719;1219;74081;-83
2021/09/19 15:34:31;;;;;;;2.60;1.70;;;;;;;25.14;41.09;100286.96;112883;1220;61014;-87
2021/09/19 15:37:27;;;;;;;1.50;1.30;;;;;;;25.13;41.09;100286.13;112863;1219;61045;-84
2021/09/19 15:41:08;;;;;;;1.60;1.50;;;;;;;25.13;41.12;100290.84;112845;1219;73305;-83
2021/09/19 15:44:00;;;;;;;2.10;1.60;;;;;;;25.13;41.19;100290.81;112827;1219;65764;-83